Terminal Aerodrome Forecast
Issued by NWS Rapid City, SD

Home | Current Version | Previous Version | Text Only | Print | Product List | Glossary On
Versions: 1 2 3 4 5 6 7 8 9 10 11 12 13 14 15 16 17 18 19 20 21 22
000
FTUS43 KUNR 240232 AAC
TAFRAP
TAF AMD
KRAP 240232Z 2403/2424 07010KT 4SM -RA OVC015
      TEMPO 2403/2406 2SM -RA BR OVC008
     FM240600 03010KT 2SM RA BR OVC005
     FM241700 02010KT 5SM -RA OVC008=

USA.gov is the U.S. government's official web portal to all federal, state and local government web resources and services.